createdAt,value
2017-11-16T00:01:33.340Z,22.53
2017-11-16T00:04:02.468Z,20.73
2017-11-16T00:06:30.802Z,23.50
2017-11-16T00:08:59.898Z,25.20
2017-11-16T00:11:28.241Z,24.67
2017-11-16T00:13:56.550Z,23.67
2017-11-16T00:16:24.901Z,23.73
2017-11-16T00:18:53.232Z,26.77
2017-11-16T00:21:22.333Z,26.67
2017-11-16T00:23:51.403Z,24.60
2017-11-16T00:26:19.751Z,24.40
2017-11-16T00:28:48.086Z,24.50
2017-11-16T00:31:17.194Z,24.37
2017-11-16T00:33:45.517Z,23.70
2017-11-16T00:36:13.877Z,25.17
2017-11-16T00:38:42.203Z,23.73
2017-11-16T00:41:10.533Z,21.57
2017-11-16T00:43:38.844Z,19.40
2017-11-16T00:46:07.178Z,22.77
2017-11-16T00:48:35.510Z,21.03
2017-11-16T00:51:03.819Z,23.30
2017-11-16T00:53:32.175Z,23.90
2017-11-16T00:56:01.258Z,24.57
2017-11-16T00:58:30.373Z,22.67
2017-11-16T01:00:58.670Z,23.90
2017-11-16T01:03:27.030Z,20.80
2017-11-16T01:05:55.347Z,23.03
2017-11-16T01:08:23.728Z,22.00
2017-11-16T01:10:52.051Z,23.20
2017-11-16T01:13:21.180Z,23.10
2017-11-16T01:15:49.507Z,22.43
2017-11-16T01:18:17.841Z,18.67
2017-11-16T01:20:46.177Z,24.40
2017-11-16T01:23:14.511Z,24.93
2017-11-16T01:25:42.822Z,20.07
2017-11-16T01:28:11.179Z,24.77
2017-11-16T01:30:39.503Z,23.70
2017-11-16T01:33:07.837Z,23.60
2017-11-16T01:35:36.173Z,23.40
2017-11-16T01:38:05.266Z,20.23
2017-11-16T01:40:34.355Z,27.40
2017-11-16T01:43:02.690Z,25.80
2017-11-16T01:45:31.025Z,29.07
2017-11-16T01:47:59.425Z,24.97
2017-11-16T01:50:27.737Z,25.80
2017-11-16T01:52:56.054Z,18.50
2017-11-16T01:55:24.413Z,25.37
2017-11-16T01:57:52.751Z,25.80
2017-11-16T02:00:21.860Z,24.93
2017-11-16T02:02:53.136Z,27.17
2017-11-16T02:05:21.480Z,22.27
2017-11-16T02:07:49.811Z,24.67
2017-11-16T02:10:18.149Z,21.73
2017-11-16T02:12:46.458Z,22.60
2017-11-16T02:15:14.815Z,25.13
2017-11-16T02:17:43.163Z,24.20
2017-11-16T02:20:11.517Z,24.70
2017-11-16T02:22:39.841Z,24.40
2017-11-16T02:25:08.196Z,24.90
2017-11-16T02:27:36.523Z,27.67
2017-11-16T02:30:04.882Z,25.10
2017-11-16T02:32:33.209Z,26.77
2017-11-16T02:35:01.570Z,27.70
2017-11-16T02:37:30.652Z,26.60
2017-11-16T02:39:59.008Z,21.20
2017-11-16T02:42:27.338Z,25.27
2017-11-16T02:44:55.697Z,25.67
2017-11-16T02:47:24.021Z,23.90
2017-11-16T02:49:52.386Z,21.60
2017-11-16T02:52:20.711Z,25.93
2017-11-16T02:54:49.094Z,23.80
2017-11-16T02:57:17.432Z,22.87
2017-11-16T02:59:45.768Z,22.90
2017-11-16T03:02:14.118Z,24.67
2017-11-16T03:04:42.448Z,22.67
2017-11-16T03:07:11.545Z,21.07
2017-11-16T03:09:39.894Z,23.27
2017-11-16T03:12:08.238Z,22.80
2017-11-16T03:14:36.546Z,23.70
2017-11-16T03:17:04.902Z,23.60
2017-11-16T03:19:33.215Z,20.67
2017-11-16T03:22:01.583Z,23.90
2017-11-16T03:24:29.927Z,23.97
2017-11-16T03:26:58.295Z,21.73
2017-11-16T03:29:27.139Z,25.70
2017-11-16T03:31:55.518Z,21.03
2017-11-16T03:34:23.844Z,22.80
2017-11-16T03:36:52.247Z,21.07
2017-11-16T03:39:20.565Z,23.17
2017-11-16T03:41:48.921Z,24.40
2017-11-16T03:44:17.236Z,23.67
2017-11-16T03:46:45.565Z,24.33
2017-11-16T03:49:13.904Z,22.47
2017-11-16T03:51:42.317Z,22.67
2017-11-16T03:54:10.753Z,22.60
2017-11-16T03:56:39.089Z,21.37
2017-11-16T03:59:07.393Z,16.20
2017-11-16T04:01:35.749Z,20.37
2017-11-16T04:04:04.049Z,20.87
2017-11-16T04:06:32.369Z,21.73
2017-11-16T04:09:01.458Z,18.77
2017-11-16T04:11:30.525Z,20.60
2017-11-16T04:13:58.861Z,14.70
2017-11-16T04:16:27.160Z,20.20
2017-11-16T04:18:55.527Z,19.83
2017-11-16T04:21:23.833Z,19.80
2017-11-16T04:23:52.160Z,22.07
2017-11-16T04:26:20.457Z,20.67
2017-11-16T04:28:48.793Z,20.33
2017-11-16T04:31:17.095Z,20.80
2017-11-16T04:33:45.460Z,21.10
2017-11-16T04:36:14.539Z,24.20
2017-11-16T04:38:42.863Z,22.00
2017-11-16T04:41:11.185Z,20.97
2017-11-16T04:43:39.513Z,21.47
2017-11-16T04:46:07.817Z,22.50
2017-11-16T04:48:36.141Z,21.50
2017-11-16T04:51:05.237Z,19.23
2017-11-16T04:53:34.554Z,19.27
2017-11-16T04:56:03.620Z,20.53
2017-11-16T04:58:31.950Z,18.77
2017-11-16T05:01:01.014Z,18.57
2017-11-16T05:03:29.360Z,17.80
2017-11-16T05:05:57.678Z,18.43
2017-11-16T05:08:26.058Z,13.63
2017-11-16T05:10:54.373Z,15.50
2017-11-16T05:13:22.686Z,17.63
2017-11-16T05:15:51.024Z,17.17
2017-11-16T05:18:19.322Z,17.00
2017-11-16T05:20:47.662Z,18.13
2017-11-16T05:23:15.975Z,14.53
2017-11-16T05:25:44.309Z,17.20
2017-11-16T05:28:13.385Z,13.33
2017-11-16T05:30:42.496Z,19.70
2017-11-16T05:33:11.564Z,19.87
2017-11-16T05:35:39.897Z,14.77
2017-11-16T05:38:08.204Z,19.00
2017-11-16T05:40:36.535Z,15.77
2017-11-16T05:43:04.849Z,14.63
2017-11-16T05:45:33.188Z,14.63
2017-11-16T05:48:02.263Z,20.70
2017-11-16T05:50:31.384Z,21.43
2017-11-16T05:52:59.699Z,19.17
2017-11-16T05:55:28.024Z,20.53
2017-11-16T05:57:57.101Z,20.27
2017-11-16T06:00:25.434Z,22.20
2017-11-16T06:02:53.750Z,22.30
2017-11-16T06:05:22.098Z,24.00
2017-11-16T06:07:50.397Z,23.57
2017-11-16T06:10:18.742Z,23.20
2017-11-16T06:12:47.036Z,22.80
2017-11-16T06:15:15.356Z,22.00
2017-11-16T06:17:43.688Z,20.90
2017-11-16T06:20:12.003Z,23.43
2017-11-16T06:22:40.321Z,21.03
2017-11-16T06:25:08.626Z,18.73
2017-11-16T06:27:36.962Z,17.87
2017-11-16T06:30:06.053Z,19.17
2017-11-16T06:32:34.380Z,16.47
2017-11-16T06:35:02.680Z,19.47
2017-11-16T06:37:31.024Z,14.97
2017-11-16T06:39:59.329Z,16.23
2017-11-16T06:42:27.654Z,16.07
2017-11-16T06:44:56.729Z,17.00
2017-11-16T06:47:25.069Z,14.37
2017-11-16T06:49:53.379Z,14.40
2017-11-16T06:52:21.713Z,14.87
2017-11-16T06:54:50.014Z,14.13
2017-11-16T06:57:18.337Z,14.07
2017-11-16T06:59:47.406Z,15.67
2017-11-16T07:02:15.822Z,15.90
2017-11-16T07:04:44.902Z,13.80
2017-11-16T07:07:13.236Z,14.80
2017-11-16T07:09:41.542Z,14.97
2017-11-16T07:12:09.869Z,14.80
2017-11-16T07:14:38.213Z,15.00
2017-11-16T07:17:06.547Z,14.47
2017-11-16T07:19:34.840Z,15.33
2017-11-16T07:22:04.083Z,15.13
2017-11-16T07:24:33.169Z,13.00
2017-11-16T07:27:01.481Z,11.27
2017-11-16T07:29:29.814Z,14.20
2017-11-16T07:31:58.135Z,13.83
2017-11-16T07:34:26.476Z,16.37
2017-11-16T07:36:54.775Z,12.40
2017-11-16T07:39:23.878Z,13.13
2017-11-16T07:41:52.948Z,14.50
2017-11-16T07:44:22.054Z,15.97
2017-11-16T07:46:51.129Z,15.00
2017-11-16T07:49:19.469Z,16.23
2017-11-16T07:51:47.774Z,15.40
2017-11-16T07:54:16.126Z,14.80
2017-11-16T07:56:44.439Z,17.53
2017-11-16T07:59:12.769Z,16.47
2017-11-16T08:01:41.111Z,15.10
2017-11-16T08:04:09.441Z,14.90
2017-11-16T08:06:37.745Z,15.10
2017-11-16T08:09:06.087Z,14.60
2017-11-16T08:11:34.393Z,13.37
2017-11-16T08:14:02.743Z,15.20
2017-11-16T08:16:31.089Z,16.37
2017-11-16T08:18:59.413Z,15.70
2017-11-16T08:21:27.714Z,17.57
2017-11-16T08:23:56.101Z,15.70
2017-11-16T08:26:24.404Z,14.80
2017-11-16T08:28:52.714Z,17.30
2017-11-16T08:31:21.049Z,15.90
2017-11-16T08:33:49.357Z,17.73
2017-11-16T08:36:18.466Z,18.40
2017-11-16T08:38:46.790Z,18.33
2017-11-16T08:41:15.172Z,18.30
2017-11-16T08:43:43.497Z,16.10
2017-11-16T08:46:11.824Z,16.30
2017-11-16T08:48:40.171Z,19.43
2017-11-16T08:51:08.498Z,17.37
2017-11-16T08:53:36.809Z,21.40
2017-11-16T08:56:05.162Z,17.00
2017-11-16T08:58:33.500Z,19.30
2017-11-16T09:01:01.847Z,17.63
2017-11-16T09:03:30.937Z,15.97
2017-11-16T09:05:59.277Z,17.10
2017-11-16T09:08:27.601Z,16.13
2017-11-16T09:10:55.941Z,15.20
2017-11-16T09:13:24.257Z,17.83
2017-11-16T09:15:52.590Z,14.07
2017-11-16T09:18:20.909Z,15.63
2017-11-16T09:20:49.999Z,14.77
2017-11-16T09:23:19.070Z,15.93
2017-11-16T09:25:47.409Z,14.47
2017-11-16T09:28:15.754Z,13.70
2017-11-16T09:30:44.113Z,12.80
2017-11-16T09:33:13.198Z,11.60
2017-11-16T09:35:41.534Z,15.37
2017-11-16T09:38:09.891Z,14.23
2017-11-16T09:40:38.961Z,13.63
2017-11-16T09:43:07.292Z,14.00
2017-11-16T09:48:35.484Z,14.80
2017-11-16T09:51:03.795Z,15.00
2017-11-16T09:53:32.141Z,14.53
2017-11-16T09:56:00.460Z,15.97
2017-11-16T09:58:28.801Z,16.23
2017-11-16T10:00:57.118Z,18.80
2017-11-16T10:03:25.458Z,16.77
2017-11-16T10:05:53.775Z,17.03
2017-11-16T10:08:22.118Z,16.63
2017-11-16T10:10:50.427Z,18.73
2017-11-16T10:13:18.771Z,17.17
2017-11-16T10:15:47.097Z,17.80
2017-11-16T10:18:15.446Z,15.43
2017-11-16T10:20:43.746Z,16.80
2017-11-16T10:23:12.086Z,16.53
2017-11-16T10:25:40.409Z,16.67
2017-11-16T10:28:08.736Z,17.47
2017-11-16T10:30:37.056Z,13.87
2017-11-16T10:33:05.393Z,16.90
2017-11-16T10:35:33.701Z,17.17
2017-11-16T10:38:02.030Z,17.50
2017-11-16T10:40:31.112Z,15.80
2017-11-16T10:43:00.216Z,17.67
2017-11-16T10:45:29.292Z,16.77
2017-11-16T10:47:57.661Z,16.07
2017-11-16T10:50:25.970Z,17.67
2017-11-16T10:52:55.036Z,17.53
2017-11-16T10:55:23.369Z,15.50
2017-11-16T10:57:51.672Z,16.07
2017-11-16T11:00:20.003Z,15.40
2017-11-16T11:02:49.085Z,16.90
2017-11-16T11:05:17.421Z,16.83
2017-11-16T11:07:45.740Z,14.80
2017-11-16T11:10:14.066Z,14.93
2017-11-16T11:12:42.367Z,15.03
2017-11-16T11:15:11.452Z,15.83
2017-11-16T11:17:39.762Z,15.60
2017-11-16T11:20:08.085Z,14.03
2017-11-16T11:22:36.396Z,12.17
2017-11-16T11:25:04.750Z,13.37
2017-11-16T11:27:33.056Z,15.27
2017-11-16T11:30:01.385Z,15.27
2017-11-16T11:32:30.459Z,14.53
2017-11-16T11:34:59.561Z,14.80
2017-11-16T11:37:27.871Z,15.13
2017-11-16T11:39:57.065Z,15.27
2017-11-16T11:42:25.374Z,14.27
2017-11-16T11:44:53.697Z,13.43
2017-11-16T11:47:21.998Z,13.60
2017-11-16T11:49:50.336Z,15.50
2017-11-16T11:52:18.641Z,15.90
2017-11-16T11:54:47.714Z,15.30
2017-11-16T11:57:16.082Z,17.20
2017-11-16T11:59:44.379Z,15.90
2017-11-16T12:02:13.468Z,16.87
2017-11-16T12:04:41.779Z,16.80
2017-11-16T12:07:10.113Z,15.60
2017-11-16T12:09:38.424Z,17.63
2017-11-16T12:12:07.533Z,15.80
2017-11-16T12:14:35.835Z,15.00
2017-11-16T12:17:04.174Z,15.30
2017-11-16T12:19:33.243Z,16.50
2017-11-16T12:22:01.577Z,15.60
2017-11-16T12:24:29.876Z,15.67
2017-11-16T12:26:58.216Z,16.60
2017-11-16T12:29:27.286Z,15.47
2017-11-16T12:31:55.609Z,14.43
2017-11-16T12:34:23.929Z,14.40
2017-11-16T12:36:52.257Z,14.80
2017-11-16T12:39:20.564Z,14.30
2017-11-16T12:41:48.893Z,12.43
2017-11-16T12:44:17.971Z,12.43
2017-11-16T12:46:47.069Z,15.03
2017-11-16T12:49:15.366Z,13.57
2017-11-16T12:51:44.461Z,13.93
2017-11-16T12:54:12.765Z,13.00
2017-11-16T12:56:41.093Z,13.40
2017-11-16T12:59:09.390Z,14.33
2017-11-16T13:01:38.487Z,16.27
2017-11-16T13:04:07.554Z,20.70
2017-11-16T13:06:35.889Z,18.77
2017-11-16T13:09:04.228Z,18.77
2017-11-16T13:11:32.557Z,18.77
2017-11-16T13:14:00.864Z,20.23
2017-11-16T13:16:29.221Z,21.03
2017-11-16T13:18:57.544Z,22.47
2017-11-16T13:21:25.852Z,22.10
2017-11-16T13:23:54.197Z,20.90
2017-11-16T13:26:22.501Z,21.00
2017-11-16T13:28:51.590Z,20.23
2017-11-16T13:31:19.923Z,20.03
2017-11-16T13:33:48.254Z,20.03
2017-11-16T13:36:17.329Z,19.27
2017-11-16T13:38:45.666Z,20.57
2017-11-16T13:41:13.994Z,20.77
2017-11-16T13:43:43.084Z,19.27
2017-11-16T13:46:11.390Z,20.10
2017-11-16T13:48:39.714Z,20.07
2017-11-16T13:51:08.029Z,19.27
2017-11-16T13:53:37.137Z,20.83
2017-11-16T13:56:06.265Z,18.93
2017-11-16T13:58:34.564Z,19.70
2017-11-16T14:01:02.899Z,19.73
2017-11-16T14:03:31.205Z,18.67
2017-11-16T14:05:59.535Z,19.90
2017-11-16T14:08:28.613Z,22.97
2017-11-16T14:10:56.946Z,22.47
2017-11-16T14:13:25.241Z,22.50
2017-11-16T14:15:53.582Z,22.13
2017-11-16T14:18:22.659Z,72.53
2017-11-16T14:20:50.984Z,21.10
2017-11-16T14:23:19.299Z,20.33
2017-11-16T14:25:47.654Z,20.97
2017-11-16T14:28:15.971Z,22.93
2017-11-16T14:30:45.042Z,21.07
2017-11-16T14:33:13.365Z,20.47
2017-11-16T14:35:42.437Z,22.57
2017-11-16T14:38:10.756Z,21.67
2017-11-16T14:40:39.066Z,22.53
2017-11-16T14:43:07.405Z,23.90
2017-11-16T14:45:35.727Z,23.30
2017-11-16T14:48:04.061Z,28.53
2017-11-16T14:50:32.367Z,23.77
2017-11-16T14:53:00.686Z,21.30
2017-11-16T14:55:29.013Z,18.33
2017-11-16T14:57:57.345Z,17.67
2017-11-16T15:00:25.674Z,19.27
2017-11-16T15:02:53.982Z,18.07
2017-11-16T15:05:22.322Z,18.00
2017-11-16T15:07:51.394Z,17.30
2017-11-16T15:10:20.499Z,16.60
2017-11-16T15:12:48.792Z,17.60
2017-11-16T15:15:17.093Z,18.37
2017-11-16T15:17:45.417Z,16.80
2017-11-16T15:20:14.491Z,15.23
2017-11-16T15:22:42.827Z,17.33
2017-11-16T15:25:11.134Z,15.47
2017-11-16T15:27:39.469Z,15.37
2017-11-16T15:30:07.773Z,14.77
2017-11-16T15:32:43.757Z,13.63
2017-11-16T15:35:12.070Z,13.40
2017-11-16T15:37:41.157Z,12.70
2017-11-16T15:40:10.231Z,12.53
2017-11-16T15:42:38.562Z,11.47
2017-11-16T15:45:06.897Z,11.77
2017-11-16T15:47:35.232Z,11.97
2017-11-16T15:50:03.543Z,10.90
2017-11-16T15:52:31.881Z,10.60
2017-11-16T15:55:00.186Z,9.93
2017-11-16T15:57:28.513Z,9.70
2017-11-16T15:59:57.603Z,10.93
2017-11-16T16:02:26.716Z,10.50
2017-11-16T16:04:55.025Z,10.63
2017-11-16T16:07:23.340Z,11.17
2017-11-16T16:09:51.651Z,9.53
2017-11-16T16:12:19.986Z,10.83
2017-11-16T16:14:48.291Z,10.20
2017-11-16T16:17:17.419Z,10.20
2017-11-16T16:19:45.725Z,10.00
2017-11-16T16:22:14.037Z,10.67
2017-11-16T16:24:43.146Z,10.33
2017-11-16T16:27:12.221Z,10.80
2017-11-16T16:29:40.548Z,11.13
2017-11-16T16:32:08.858Z,9.83
2017-11-16T16:34:37.193Z,10.47
2017-11-16T16:37:05.501Z,10.40
2017-11-16T16:39:33.862Z,10.03
2017-11-16T16:42:02.169Z,11.87
2017-11-16T16:44:30.501Z,13.50
2017-11-16T16:46:58.811Z,11.30
2017-11-16T16:49:27.178Z,11.33
2017-11-16T16:51:55.465Z,10.73
2017-11-16T16:54:23.789Z,11.20
2017-11-16T16:56:52.093Z,10.90
2017-11-16T16:59:20.419Z,10.67
2017-11-16T17:01:48.725Z,11.80
2017-11-16T17:04:17.829Z,11.67
2017-11-16T17:06:46.905Z,11.17
2017-11-16T17:09:15.233Z,11.33
2017-11-16T17:11:43.532Z,10.00
2017-11-16T17:14:11.856Z,10.57
2017-11-16T17:16:40.925Z,11.70
2017-11-16T17:19:09.270Z,11.00
2017-11-16T17:21:37.581Z,12.10
2017-11-16T17:24:05.946Z,12.33
2017-11-16T17:26:34.254Z,11.63
2017-11-16T17:29:02.559Z,11.67
2017-11-16T17:31:31.653Z,13.77
2017-11-16T17:34:00.721Z,12.40
2017-11-16T17:36:29.053Z,13.70
2017-11-16T17:38:57.366Z,13.20
2017-11-16T17:41:25.697Z,15.10
2017-11-16T17:43:53.995Z,12.80
2017-11-16T17:46:22.323Z,15.77
2017-11-16T17:48:51.408Z,14.20
2017-11-16T17:51:19.772Z,15.00
2017-11-16T17:53:48.060Z,13.23
2017-11-16T17:56:16.438Z,15.23
2017-11-16T17:58:44.739Z,13.87
2017-11-16T18:01:13.833Z,13.43
2017-11-16T18:03:42.926Z,15.03
2017-11-16T18:06:18.249Z,14.93
2017-11-16T18:08:46.559Z,15.33
2017-11-16T18:11:15.656Z,13.53
2017-11-16T18:13:43.975Z,14.17
2017-11-16T18:16:12.305Z,15.40
2017-11-16T18:18:41.385Z,13.77
2017-11-16T18:21:09.717Z,13.27
2017-11-16T18:23:38.022Z,13.83
2017-11-16T18:26:06.361Z,14.63
2017-11-16T18:28:34.669Z,14.87
2017-11-16T18:31:02.999Z,14.60
2017-11-16T18:33:32.065Z,12.63
2017-11-16T18:36:00.406Z,13.77
2017-11-16T18:38:28.705Z,12.70
2017-11-16T18:40:57.068Z,14.33
2017-11-16T18:43:25.383Z,14.43
2017-11-16T18:45:53.690Z,15.00
2017-11-16T18:48:22.785Z,15.03
2017-11-16T18:50:51.853Z,15.57
2017-11-16T18:53:20.175Z,14.20
2017-11-16T18:55:48.477Z,14.97
2017-11-16T18:58:16.818Z,14.43
2017-11-16T19:00:45.903Z,14.97
2017-11-16T19:03:15.007Z,14.13
2017-11-16T19:05:43.315Z,14.77
2017-11-16T19:08:11.637Z,13.70
2017-11-16T19:10:39.952Z,15.57
2017-11-16T19:13:09.042Z,15.63
2017-11-16T19:15:38.267Z,16.33
2017-11-16T19:18:06.617Z,16.27
2017-11-16T19:20:35.720Z,16.40
2017-11-16T19:23:04.855Z,16.07
2017-11-16T19:25:33.160Z,17.57
2017-11-16T19:28:01.482Z,15.43
2017-11-16T19:30:29.786Z,14.80
2017-11-16T19:32:58.121Z,15.93
2017-11-16T19:35:27.186Z,16.97
2017-11-16T19:37:55.518Z,17.23
2017-11-16T19:40:23.835Z,14.97
2017-11-16T19:42:52.142Z,15.97
2017-11-16T19:45:20.683Z,17.60
2017-11-16T19:47:49.065Z,16.60
2017-11-16T19:50:17.404Z,18.43
2017-11-16T19:52:45.713Z,17.43
2017-11-16T19:55:15.921Z,17.90
2017-11-16T19:57:46.369Z,17.67
2017-11-16T20:00:17.889Z,17.10
2017-11-16T20:02:46.234Z,15.60
2017-11-16T20:05:14.569Z,16.43
2017-11-16T20:07:45.862Z,14.47
2017-11-16T20:10:15.421Z,15.67
2017-11-16T20:12:44.425Z,15.13
2017-11-16T20:15:12.767Z,15.30
2017-11-16T20:17:43.005Z,16.10
2017-11-16T20:20:12.088Z,15.83
2017-11-16T20:22:41.461Z,15.37
2017-11-16T20:25:10.579Z,15.97
2017-11-16T20:27:39.641Z,16.87
2017-11-16T20:30:08.853Z,16.97
2017-11-16T20:32:37.876Z,16.13
2017-11-16T20:35:06.965Z,14.53
2017-11-16T20:37:41.054Z,18.23
2017-11-16T20:40:21.127Z,17.70
2017-11-16T20:46:02.542Z,19.03
2017-11-16T20:48:37.326Z,17.80
2017-11-16T20:51:11.293Z,17.47
2017-11-16T20:56:55.138Z,16.90
2017-11-16T20:59:24.212Z,17.20
2017-11-16T21:01:52.558Z,17.77
2017-11-16T21:04:20.935Z,17.17
2017-11-16T21:06:49.280Z,19.00
2017-11-16T21:09:18.358Z,18.80
2017-11-16T21:11:46.689Z,16.60
2017-11-16T21:14:14.996Z,18.03
2017-11-16T21:16:43.327Z,16.60
2017-11-16T21:19:11.655Z,17.00
2017-11-16T21:21:39.983Z,16.53
2017-11-16T21:24:08.293Z,16.33
2017-11-16T21:26:36.642Z,15.20
2017-11-16T21:29:04.944Z,15.70
2017-11-16T21:31:33.243Z,15.00
2017-11-16T21:34:01.574Z,15.53
2017-11-16T21:36:30.634Z,17.27
2017-11-16T21:38:58.952Z,15.90
2017-11-16T21:41:27.259Z,16.50
2017-11-16T21:43:55.580Z,15.93
2017-11-16T21:46:23.881Z,15.90
2017-11-16T21:48:52.213Z,16.60
2017-11-16T21:51:20.517Z,15.10
2017-11-16T21:53:48.844Z,16.47
2017-11-16T21:56:17.164Z,15.60
2017-11-16T21:58:45.548Z,15.37
2017-11-16T22:01:13.857Z,16.03
2017-11-16T22:03:42.187Z,16.07
2017-11-16T22:06:10.509Z,18.60
2017-11-16T22:08:38.850Z,17.07
2017-11-16T22:11:07.163Z,16.57
2017-11-16T22:13:35.497Z,14.20
2017-11-16T22:16:03.812Z,14.63
2017-11-16T22:18:32.908Z,15.73
2017-11-16T22:21:01.992Z,16.40
2017-11-16T22:23:31.093Z,16.90
2017-11-16T22:25:59.391Z,15.33
2017-11-16T22:28:27.769Z,15.30
2017-11-16T22:30:56.835Z,16.33
2017-11-16T22:33:25.156Z,15.47
2017-11-16T22:35:53.474Z,15.70
2017-11-16T22:38:21.791Z,15.00
2017-11-16T22:40:50.930Z,15.60
2017-11-16T22:43:19.234Z,15.50
2017-11-16T22:45:47.539Z,16.27
2017-11-16T22:48:16.634Z,16.23
2017-11-16T22:50:45.701Z,15.53
2017-11-16T22:53:14.029Z,15.50
2017-11-16T22:55:42.335Z,15.80
2017-11-16T22:58:10.671Z,17.20
2017-11-16T23:00:39.738Z,15.20
2017-11-16T23:03:08.857Z,17.00
2017-11-16T23:05:37.956Z,14.80
2017-11-16T23:08:06.318Z,16.03
2017-11-16T23:10:35.401Z,16.10
2017-11-16T23:13:03.705Z,16.27
2017-11-16T23:15:32.802Z,15.33
2017-11-16T23:18:01.103Z,16.47
2017-11-16T23:20:29.456Z,15.00
2017-11-16T23:22:57.756Z,16.53
2017-11-16T23:25:26.084Z,17.60
2017-11-16T23:27:54.393Z,17.00
2017-11-16T23:30:23.483Z,16.60
2017-11-16T23:32:51.789Z,17.47
2017-11-16T23:35:20.109Z,14.87
2017-11-16T23:37:48.413Z,17.00
2017-11-16T23:40:16.739Z,18.40
2017-11-16T23:42:45.056Z,18.37
2017-11-16T23:45:13.381Z,17.93
2017-11-16T23:47:41.697Z,18.17
2017-11-16T23:50:10.046Z,19.67
2017-11-16T23:52:38.381Z,17.10
2017-11-16T23:55:06.715Z,18.50
2017-11-16T23:57:35.028Z,19.30
